METAR Data
IDs: Format: Raw Decoded Include TAF

Data at: 2237 UTC 25 Oct 2021

PASD 252156Z 35016G23KT 10SM FEW028 SCT070 BKN120 04/M02 A2922 RMK AO2 PK WND 34032/2113 SLP898 T00391017 $
PASD 252056Z 36020G25KT 10SM FEW025 SCT060 BKN120 04/M02 A2920 RMK AO2 SLP891 T00441022 51020 $
PASD 251956Z 36017G24KT 10SM FEW023 SCT050 BKN110 04/M02 A2919 RMK AO2 PK WND 36026/1943 SLP886 T00441017 $
PASD 251756Z 34010KT 10SM FEW025 SCT045 BKN100 03/M02 A2914 RMK AO2 SLP871 60001 T00331017 10044 20028 53013 $
PASD 251656Z 32012KT 10SM FEW022 SCT040 SCT110 03/M02 A2913 RMK AO2 SLP866 T00331017 $
PASD 251556Z 34010KT 10SM SCT025 BKN045 BKN110 04/M02 A2912 RMK AO2 SLP862 T00391017 $
PASD 251456Z 01008KT 10SM SCT028 BKN036 BKN110 04/M02 A2911 RMK AO2 SLP858 60001 T00391017 50000 $
PASD 251356Z AUTO 04011KT 10SM OVC033 03/00 A2911 RMK AO2 RAE29 SLP858 P0001 T00330000 $
PASD 251347Z AUTO 03009KT 10SM BKN029 OVC037 03/00 A2911 RMK AO2 RAE29 P0001 $
PASD 251334Z AUTO 03011KT 10SM SCT024 BKN030 OVC037 03/01 A2911 RMK AO2 RAE29 P0001 $
PASD 251156Z AUTO 03012G18KT 10SM SCT013 BKN020 OVC090 03/01 A2911 RMK AO2 RAE45UPB45E52 SLP861 P0000 60004 70004 T00280011 10033 20017 56005 $
PASD 251141Z AUTO 03009KT 10SM -RA SCT013 BKN018 BKN090 03/01 A2911 RMK AO2 P0000 $
PASD 251056Z AUTO 03014G20KT 10SM -RA BKN015 BKN023 OVC034 03/02 A2911 RMK AO2 RAB16SNB34E43 SLP859 P0004 T00330017 $
PASD 251024Z AUTO VRB03KT 10SM -RA SCT015 BKN029 OVC070 03/01 A2912 RMK AO2 RAB16 P0001 $
PASD 250956Z AUTO 04005KT 10SM FEW016 SCT031 OVC065 03/01 A2913 RMK AO2 RAB37E54 SLP865 P0000 T00280011 $
PASD 250856Z AUTO 04004KT 10SM SCT055 OVC070 03/M01 A2913 RMK AO2 SLP868 T00331011 56019 $
PASD 250756Z AUTO 00000KT 10SM OVC080 03/M01 A2915 RMK AO2 SLP872 T00281006 400500022 $
PASD 250656Z AUTO 04005KT 10SM FEW028 SCT034 OVC046 03/00 A2917 RMK AO2 SLP879 T00330000 $
PASD 250456Z AUTO 00000KT 10SM FEW041 OVC110 03/M02 A2923 RMK AO2 SLP902 T00281017 $
PASD 250356Z AUTO 00000KT 10SM BKN041 OVC120 03/M02 A2927 RMK AO2 SLP914 T00331017 $
PASD 250302Z AUTO 00000KT 10SM BKN040 04/M02 A2929 RMK AO2 $
PASD 250256Z 00000KT 10SM SCT025 BKN044 OVC080 04/M02 A2930 RMK AO2 SLP923 LAST T00391017 56044 $
PASD 250253Z 00000KT 10SM SCT025 BKN044 OVC080 04/M02 A2930 RMK AO2 LAST $
PASD 250156Z 00000KT 10SM SCT023 BKN042 OVC080 04/M02 A2933 RMK AO2 SLP933 T00441022 $
PASD 250152Z 06004KT 10SM SCT023 BKN042 OVC080 04/M03 A2933 RMK AO2 $
PASD 250056Z 02006KT 10SM SCT025 BKN042 BKN080 04/M02 A2938 RMK AO2 SLP950 T00441017 $
PASD 250053Z 03006KT 10SM SCT025 BKN042 BKN080 04/M02 A2938 RMK AO2 $
PASD 242356Z 36006KT 10SM FEW021 BKN034 BKN070 04/M02 A2943 RMK AO2 SLP967 60000 T00441017 10050 20022 58042 $
PASD 242328Z 35008KT 10SM FEW021 BKN030 BKN070 04/M02 A2945 RMK AO2 $
PASD 242256Z 33008KT 10SM FEW022 BKN033 BKN060 04/M01 A2947 RMK AO2 SLP982 T00441006 $
PASD 242156Z 29007KT 10SM SCT028 BKN050 BKN090 04/00 A2953 RMK AO2 SLP000 T00390000 $
PASD 242153Z 29007KT 10SM SCT028 BKN050 BKN090 04/00 A2952 RMK AO2 $
PASD 242056Z 31008KT 10SM FEW025 BKN042 BKN070 04/M01 A2955 RMK AO2 SLP008 60000 T00391006 55020 $
PASD 242053Z 31008KT 10SM FEW025 BKN042 BKN070 04/M01 A2955 RMK AO2 $
PASD 241956Z 33012KT 10SM FEW023 BKN035 BKN060 03/M01 A2955 RMK AO2 RAB15E16UPB16E29 SLP007 P0000 T00331011 $
PASD 241930Z 35009KT 10SM FEW023 BKN030 BKN037 03/M01 A2956 RMK AO2 RAB15E16UPB16E29 P0000 $
PASD 241856Z 31010KT 10SM FEW022 BKN037 BKN060 03/00 A2958 RMK AO2 SLP019 T00330000 $
PASD 241756Z 31008KT 10SM FEW023 FEW029 SCT042 03/M01 A2961 RMK AO2 SLP028 60000 T00281006 10044 20022 58020 $
PASD 241656Z 31012KT 10SM FEW028 SCT037 BKN070 03/00 A2963 RMK AO2 SLP035 T00280000 $
PASD 241556Z 34019G23KT 10SM FEW024 SCT033 SCT060 03/00 A2965 RMK PK WND 34026/1518
PASD 241456Z 35014KT 10SM -RA BKN037 BKN045 03/M01 A2967 RMK AO2 RAB53 SLP048 P0000 60000 T00331006 53007 $
PASD 241356Z AUTO 33017G24KT 10SM OVC039 04/M02 A2966 RMK AO2 SLP045 T00441017 $
PASD 241156Z AUTO 32019G24KT 10SM FEW036 04/M01 A2965 RMK AO2 PK WND 32028/1114 RAE08 SLP041 P0000 60002 70007 T00441006 10050 20033 51024 $
PASD 241114Z AUTO 32024KT 10SM FEW019 SCT030 04/01 A2963 RMK AO2 PK WND 32028/1114 RAE08 P0000 $
PASD 241056Z AUTO 34020G25KT 10SM -RA BKN019 OVC028 03/01 A2963 RMK AO2 PK WND 33026/1050 RAB34 SLP035 P0001 T00330011 $